Time;durP1;ratioP1;P1;durP2;ratioP2;P2;SDS_P1;SDS_P2;PMS_P1;PMS_P2;Temp;Humidity;BMP_temperature;BMP_pressure;BME280_temperature;BME280_humidity;BME280_pressure;Samples;Min_cycle;Max_cycle;Signal;HPM_P1;HPM_P2
2021/09/23 00:00:41;;;;;;;6.83;6.17;;;;;;;10.38;93.91;99473.22;4936949;28;102756;-75
2021/09/23 00:03:12;;;;;;;7.80;7.00;;;;;;;10.19;94.98;99469.97;4942607;28;103338;-73
2021/09/23 00:05:41;;;;;;;7.00;6.10;;;;;;;10.32;95.39;99473.56;4930712;28;104595;-73
2021/09/23 00:08:10;;;;;;;5.70;5.20;;;;;;;10.51;94.15;99473.31;4928875;28;102721;-72
2021/09/23 00:10:41;;;;;;;5.50;4.37;;;;;;;10.64;92.04;99472.47;4937721;28;102838;-73
2021/09/23 00:13:11;;;;;;;4.43;4.03;;;;;;;10.67;90.03;99472.31;4930981;28;104102;-74
2021/09/23 00:15:39;;;;;;;7.13;5.60;;;;;;;10.55;89.39;99469.56;4932478;28;103339;-74
2021/09/23 00:18:11;;;;;;;5.63;4.83;;;;;;;10.56;89.52;99463.31;4939396;28;102608;-72
2021/09/23 00:20:41;;;;;;;6.50;5.90;;;;;;;10.30;90.70;99462.25;4936286;28;102705;-72
2021/09/23 00:23:09;;;;;;;4.67;4.17;;;;;;;10.42;90.59;99461.50;4936068;28;104039;-72
2021/09/23 00:25:39;;;;;;;5.47;4.77;;;;;;;10.38;89.97;99452.09;4938657;28;103288;-72
2021/09/23 00:28:09;;;;;;;8.37;5.97;;;;;;;10.43;89.75;99452.66;4934240;28;102638;-75
2021/09/23 00:30:38;;;;;;;6.20;4.93;;;;;;;10.33;89.96;99440.94;4941603;28;102788;-75
2021/09/23 00:33:06;;;;;;;6.90;6.30;;;;;;;10.09;90.85;99437.06;4937391;28;103303;-71
2021/09/23 00:35:34;;;;;;;7.57;6.10;;;;;;;9.97;91.30;99437.75;4937060;28;103260;-73
2021/09/23 00:38:03;;;;;;;6.00;5.03;;;;;;;10.09;91.33;99442.34;4939011;28;103786;-71
2021/09/23 00:40:31;;;;;;;7.33;6.73;;;;;;;9.87;91.81;99435.69;4936542;28;104195;-71
2021/09/23 00:43:01;;;;;;;6.67;6.03;;;;;;;9.97;92.59;99432.50;4923190;28;103215;-74
2021/09/23 00:45:30;;;;;;;6.80;6.20;;;;;;;9.91;92.65;99439.81;4923062;28;104463;-74
2021/09/23 00:47:58;;;;;;;6.00;5.40;;;;;;;9.95;93.48;99445.78;4929891;28;102655;-74
2021/09/23 00:50:26;;;;;;;6.70;6.00;;;;;;;9.90;93.84;99439.94;4927487;28;102717;-74
2021/09/23 00:53:03;;;;;;;6.43;5.70;;;;;;;10.00;93.44;99433.16;4930389;28;103453;-74
2021/09/23 00:55:31;;;;;;;6.43;5.73;;;;;;;9.75;96.05;99436.38;4939965;28;103207;-74
2021/09/23 00:58:00;;;;;;;7.63;6.60;;;;;;;9.67;96.37;99441.25;4928561;28;102647;-74
2021/09/23 01:00:31;;;;;;;8.70;6.83;;;;;;;9.78;95.77;99441.50;4928754;28;102807;-74
2021/09/23 01:03:03;;;;;;;5.93;5.30;;;;;;;9.89;94.91;99440.88;4920334;28;104697;-74
2021/09/23 01:05:33;;;;;;;9.83;6.90;;;;;;;9.80;94.33;99442.25;4937286;28;103304;-73
2021/09/23 01:08:02;;;;;;;6.47;5.03;;;;;;;9.91;94.50;99444.25;4940174;28;103061;-75
2021/09/23 01:10:30;;;;;;;5.40;4.17;;;;;;;10.06;93.92;99447.81;4938716;28;102743;-74
2021/09/23 01:12:59;;;;;;;5.30;4.80;;;;;;;10.16;92.58;99441.91;4928561;28;104037;-74
2021/09/23 01:15:39;;;;;;;7.60;6.73;;;;;;;9.80;93.31;99442.25;4932628;28;103369;-74
2021/09/23 01:18:08;;;;;;;7.20;5.80;;;;;;;9.96;94.05;99444.00;4939026;28;102704;-72
2021/09/23 01:20:36;;;;;;;6.80;6.07;;;;;;;9.97;92.54;99440.41;4933797;28;104016;-71
2021/09/23 01:23:06;;;;;;;7.83;4.73;;;;;;;10.07;92.15;99436.31;4941585;28;103352;-71
2021/09/23 01:25:43;;;;;;;4.53;4.07;;;;;;;10.12;89.94;99439.53;4937351;28;103322;-71
2021/09/23 01:28:11;;;;;;;5.50;4.70;;;;;;;10.04;90.36;99441.75;4926576;28;102742;-74
2021/09/23 01:30:49;;;;;;;7.10;5.90;;;;;;;9.96;90.02;99446.66;4937404;28;102738;-74
2021/09/23 01:33:18;;;;;;;9.47;6.97;;;;;;;9.53;91.69;99438.53;4928397;28;103243;-74
2021/09/23 01:35:46;;;;;;;6.10;5.50;;;;;;;9.70;92.32;99434.94;4927349;28;103249;-74
2021/09/23 01:38:15;;;;;;;7.00;5.93;;;;;;;9.62;91.93;99438.03;4927433;28;102854;-75
2021/09/23 01:40:44;;;;;;;5.90;4.67;;;;;;;9.63;92.41;99433.56;4934227;28;102811;-72
2021/09/23 01:43:13;;;;;;;6.53;5.93;;;;;;;9.64;91.32;99433.50;4935173;28;103317;-71
2021/09/23 01:45:41;;;;;;;6.97;5.27;;;;;;;9.67;90.91;99433.34;4942488;28;103108;-72
2021/09/23 01:48:09;;;;;;;8.07;5.57;;;;;;;9.73;90.46;99430.34;4927868;28;102609;-71
2021/09/23 01:50:43;;;;;;;5.93;5.13;;;;;;;9.78;89.79;99433.56;4930935;28;102795;-72
2021/09/23 01:53:11;;;;;;;5.30;4.80;;;;;;;9.82;89.74;99429.78;4939510;28;103265;-75
2021/09/23 01:55:41;;;;;;;6.07;5.37;;;;;;;9.81;89.01;99429.91;4937627;28;103298;-75
2021/09/23 01:58:10;;;;;;;6.30;5.63;;;;;;;9.73;89.18;99430.34;4934191;28;102847;-75
2021/09/23 02:00:40;;;;;;;7.13;6.27;;;;;;;9.38;90.96;99428.84;4929502;28;103200;-72
2021/09/23 02:03:10;;;;;;;7.43;6.17;;;;;;;9.11;93.75;99435.66;4944124;28;103339;-75
2021/09/23 02:06:01;;;;;;;7.77;6.17;;;;;;;9.24;93.88;99426.13;4936489;28;103232;-75
2021/09/23 02:08:30;;;;;;;5.53;4.60;;;;;;;9.36;93.53;99433.34;4950084;28;102861;-73
2021/09/23 02:11:01;;;;;;;7.37;5.63;;;;;;;9.47;92.38;99423.06;4928209;28;102847;-76
2021/09/23 02:13:37;;;;;;;5.40;4.80;;;;;;;9.55;91.79;99420.81;4929203;28;103272;-72
2021/09/23 02:16:06;;;;;;;3.97;3.63;;;;;;;9.60;91.15;99424.06;4928263;28;103508;-72
2021/09/23 02:18:35;;;;;;;4.17;3.80;;;;;;;9.68;91.00;99410.44;4939052;28;102669;-73
2021/09/23 02:21:06;;;;;;;6.77;5.90;;;;;;;9.67;89.57;99412.22;4925563;28;102637;-72
2021/09/23 02:23:34;;;;;;;6.57;5.93;;;;;;;9.29;91.17;99403.84;4930696;28;104591;-73
2021/09/23 02:26:04;;;;;;;7.60;6.80;;;;;;;8.94;93.99;99407.56;4928226;28;103251;-76
2021/09/23 02:28:34;;;;;;;6.27;5.37;;;;;;;9.07;94.03;99402.47;4944366;28;102537;-76
2021/09/23 02:31:02;;;;;;;5.77;5.27;;;;;;;9.23;93.01;99392.81;4943794;28;102621;-76
2021/09/23 02:33:31;;;;;;;9.30;6.67;;;;;;;9.26;92.02;99387.34;4945178;28;103358;-76
2021/09/23 02:35:59;;;;;;;7.13;6.13;;;;;;;9.15;93.19;99392.38;4934230;28;103227;-75
2021/09/23 02:38:27;;;;;;;6.93;5.40;;;;;;;9.12;92.90;99384.63;4927473;28;102712;-75
2021/09/23 02:40:56;;;;;;;7.40;5.63;;;;;;;9.07;94.10;99389.28;4935048;28;102890;-73
2021/09/23 02:43:26;;;;;;;6.70;6.10;;;;;;;9.08;94.08;99383.94;4921351;28;103247;-73
2021/09/23 02:45:54;;;;;;;6.90;6.20;;;;;;;8.99;94.42;99378.31;4929815;28;103182;-72
2021/09/23 02:48:22;;;;;;;6.23;5.63;;;;;;;9.11;94.16;99369.75;4932099;28;102691;-73
2021/09/23 02:50:50;;;;;;;5.07;4.57;;;;;;;9.19;94.18;99370.16;4940562;28;104005;-76
2021/09/23 02:53:19;;;;;;;5.60;5.10;;;;;;;9.29;92.59;99351.09;4938478;28;103249;-75
2021/09/23 02:55:47;;;;;;;7.70;5.63;;;;;;;9.36;91.79;99356.88;4920164;28;103517;-75
2021/09/23 02:58:16;;;;;;;10.23;5.93;;;;;;;8.90;93.25;99360.41;4929111;28;102763;-76
2021/09/23 03:00:45;;;;;;;9.93;6.57;;;;;;;8.35;95.44;99352.84;4941067;28;104012;-76
2021/09/23 03:03:14;;;;;;;6.70;6.10;;;;;;;8.39;96.50;99361.44;4937320;28;103315;-74
2021/09/23 03:05:44;;;;;;;11.43;6.27;;;;;;;8.36;98.48;99362.44;4932671;28;103369;-75
2021/09/23 03:08:13;;;;;;;7.60;6.87;;;;;;;8.47;97.96;99357.47;4929285;28;102888;-76
2021/09/23 03:10:41;;;;;;;6.00;5.40;;;;;;;8.58;98.14;99357.75;4929314;28;102867;-72
2021/09/23 03:13:09;;;;;;;9.03;6.90;;;;;;;8.37;98.59;99348.34;4930680;28;103320;-72
2021/09/23 03:15:37;;;;;;;7.87;6.83;;;;;;;8.18;100.00;99345.81;4929196;28;103237;-75
2021/09/23 03:18:07;;;;;;;7.10;6.40;;;;;;;8.30;100.00;99344.34;4930540;28;102707;-73
2021/09/23 03:20:35;;;;;;;7.13;6.43;;;;;;;8.48;100.00;99345.97;4927401;28;103095;-72
2021/09/23 03:23:03;;;;;;;6.00;5.40;;;;;;;8.51;100.00;99344.97;4925794;28;103266;-74
2021/09/23 03:25:31;;;;;;;4.90;4.43;;;;;;;8.81;99.49;99337.19;4933230;28;103001;-75
2021/09/23 03:28:02;;;;;;;5.10;4.60;;;;;;;8.91;97.14;99333.97;4939009;28;102632;-76
2021/09/23 03:30:30;;;;;;;5.20;4.77;;;;;;;8.97;94.75;99314.31;4939717;28;102798;-75
2021/09/23 03:32:58;;;;;;;8.80;5.97;;;;;;;8.77;92.99;99309.31;4928368;28;103262;-76
2021/09/23 03:35:28;;;;;;;8.07;6.70;;;;;;;8.26;95.03;99319.06;4926745;28;103804;-75
2021/09/23 03:37:56;;;;;;;7.20;6.47;;;;;;;8.45;97.07;99324.25;4924637;28;103254;-75
2021/09/23 03:40:25;;;;;;;7.57;6.77;;;;;;;8.28;97.77;99327.75;4936571;28;102674;-72
2021/09/23 03:42:53;;;;;;;9.90;7.20;;;;;;;8.34;98.94;99337.09;4942968;28;103817;-72
2021/09/23 03:45:22;;;;;;;8.10;7.30;;;;;;;8.47;98.15;99336.41;4940222;28;103275;-75
2021/09/23 03:47:51;;;;;;;7.20;6.37;;;;;;;8.53;97.51;99332.59;4924508;28;102837;-75
2021/09/23 03:50:20;;;;;;;7.43;6.50;;;;;;;8.58;97.65;99326.13;4929273;28;102736;-75
2021/09/23 03:52:50;;;;;;;6.13;5.53;;;;;;;8.74;96.33;99326.97;4918070;28;104297;-67
2021/09/23 03:55:18;;;;;;;6.50;5.33;;;;;;;8.86;94.83;99324.59;4922119;28;103281;-72
2021/09/23 03:57:47;;;;;;;4.40;4.00;;;;;;;8.84;92.75;99327.34;4921842;28;102700;-77
2021/09/23 04:00:17;;;;;;;4.47;3.70;;;;;;;8.94;92.06;99322.38;4936343;28;102738;-75
2021/09/23 04:02:47;;;;;;;5.20;4.73;;;;;;;8.88;91.20;99328.00;4935798;28;102960;-68
2021/09/23 04:05:16;;;;;;;9.40;6.10;;;;;;;8.50;91.61;99327.47;4936321;28;103313;-68
2021/09/23 04:07:46;;;;;;;7.57;6.07;;;;;;;8.48;92.20;99314.38;4932545;28;102665;-68
2021/09/23 04:10:15;;;;;;;5.27;4.77;;;;;;;8.63;91.77;99316.19;4921996;28;102897;-68
2021/09/23 04:12:43;;;;;;;8.07;5.33;;;;;;;8.69;91.07;99310.59;4923315;28;103422;-76
2021/09/23 04:15:12;;;;;;;7.17;6.17;;;;;;;8.47;91.26;99310.06;4932764;28;103049;-67
2021/09/23 04:17:40;;;;;;;6.47;5.80;;;;;;;8.28;93.31;99306.69;4922855;28;102693;-68
2021/09/23 04:20:09;;;;;;;4.47;4.07;;;;;;;8.45;92.71;99292.66;4925012;28;104550;-68
2021/09/23 04:22:39;;;;;;;5.63;5.10;;;;;;;8.59;91.68;99287.44;4929089;28;104100;-68
2021/09/23 04:25:08;;;;;;;5.87;4.30;;;;;;;8.63;90.91;99279.31;4921114;28;103280;-76
2021/09/23 04:27:37;;;;;;;6.43;5.63;;;;;;;8.63;90.50;99284.56;4926532;28;102951;-77
2021/09/23 04:30:07;;;;;;;8.80;6.13;;;;;;;8.39;91.01;99283.31;4946166;28;102650;-76
2021/09/23 04:32:36;;;;;;;7.70;6.90;;;;;;;8.31;92.69;99279.38;4938567;28;103231;-67
2021/09/23 04:35:05;;;;;;;6.73;6.13;;;;;;;8.45;93.26;99277.66;4923773;28;103261;-72
2021/09/23 04:37:33;;;;;;;7.30;6.60;;;;;;;8.22;94.27;99270.16;4927660;28;102907;-72
2021/09/23 04:40:01;;;;;;;9.30;8.30;;;;;;;7.75;100.00;99280.53;4949064;28;104751;-72
2021/09/23 04:42:30;;;;;;;8.37;6.97;;;;;;;7.73;100.00;99284.19;4925521;28;103435;-72
2021/09/23 04:45:02;;;;;;;8.20;7.40;;;;;;;7.89;100.00;99279.81;4922635;28;103247;-73
2021/09/23 04:47:40;;;;;;;9.20;7.57;;;;;;;8.16;100.00;99270.47;4928275;28;102756;-66
2021/09/23 04:50:10;;;;;;;6.50;5.90;;;;;;;8.34;100.00;99273.91;4940975;28;103978;-66
2021/09/23 04:52:38;;;;;;;6.50;5.90;;;;;;;8.42;99.77;99277.00;4940618;28;103266;-66
2021/09/23 04:55:07;;;;;;;5.67;5.07;;;;;;;8.52;98.50;99259.75;4939508;28;103263;-67
2021/09/23 04:57:36;;;;;;;7.57;6.27;;;;;;;8.54;96.18;99255.25;4932795;28;103083;-66
2021/09/23 05:00:06;;;;;;;6.93;6.23;;;;;;;8.54;95.47;99250.84;4940950;28;102692;-67
2021/09/23 05:02:38;;;;;;;9.93;6.90;;;;;;;8.29;96.29;99254.91;4927418;28;103241;-66
2021/09/23 05:05:08;;;;;;;12.33;8.80;;;;;;;8.15;99.14;99258.25;4922837;28;103419;-67
2021/09/23 05:07:38;;;;;;;8.30;7.40;;;;;;;8.23;100.00;99269.22;4929841;28;102672;-66
2021/09/23 05:10:07;;;;;;;7.83;6.40;;;;;;;8.42;100.00;99267.31;4922800;28;103750;-67
2021/09/23 05:12:38;;;;;;;7.30;6.60;;;;;;;8.56;98.98;99262.13;4929159;28;103350;-67
2021/09/23 05:15:11;;;;;;;6.77;5.70;;;;;;;8.67;97.98;99257.13;4943133;28;103221;-66
2021/09/23 05:17:40;;;;;;;10.70;7.20;;;;;;;8.63;95.55;99260.88;4939311;28;102668;-66
2021/09/23 05:20:10;;;;;;;10.53;7.13;;;;;;;8.38;97.29;99260.53;4939390;28;102725;-66
2021/09/23 05:22:39;;;;;;;7.07;6.37;;;;;;;8.41;99.33;99249.81;4941481;28;103124;-66
2021/09/23 05:25:08;;;;;;;6.20;5.60;;;;;;;8.63;98.27;99246.84;4937469;28;103208;-66
2021/09/23 05:27:38;;;;;;;9.47;7.20;;;;;;;8.69;95.86;99234.19;4918224;28;102801;-66
2021/09/23 05:30:12;;;;;;;12.43;8.57;;;;;;;8.38;98.73;99238.59;4916845;28;102774;-66
2021/09/23 05:32:41;;;;;;;11.00;8.53;;;;;;;8.22;100.00;99241.19;4916643;28;103377;-66
2021/09/23 05:35:11;;;;;;;7.97;7.00;;;;;;;8.46;100.00;99224.09;4917003;28;103256;-66
2021/09/23 05:37:41;;;;;;;6.47;5.83;;;;;;;8.72;99.58;99217.34;4919270;28;102677;-66
2021/09/23 05:40:11;;;;;;;8.63;7.33;;;;;;;8.74;98.19;99213.69;4881959;28;103117;-66
2021/09/23 05:42:40;;;;;;;9.53;8.30;;;;;;;8.70;99.22;99206.91;4904063;28;103212;-66
2021/09/23 05:45:12;;;;;;;6.83;6.03;;;;;;;8.72;99.66;99207.69;4915569;28;103241;-65
2021/09/23 05:47:41;;;;;;;7.13;6.10;;;;;;;8.85;100.00;99206.97;4918335;28;102923;-66
2021/09/23 05:50:11;;;;;;;10.20;8.77;;;;;;;9.01;99.65;99203.34;4896175;28;103028;-66
2021/09/23 05:52:42;;;;;;;9.90;8.63;;;;;;;8.91;100.00;99206.59;4901527;28;103239;-66
2021/09/23 05:55:11;;;;;;;7.83;6.63;;;;;;;9.09;99.95;99198.50;4919241;28;103210;-66
2021/09/23 05:57:39;;;;;;;7.10;6.17;;;;;;;9.29;99.75;99203.44;4912160;28;102620;-64
2021/09/23 06:00:12;;;;;;;7.23;6.53;;;;;;;9.50;97.71;99201.31;4917237;28;102658;-65
2021/09/23 06:02:40;;;;;;;12.20;8.43;;;;;;;9.62;97.98;99205.00;4915280;28;104076;-66
2021/09/23 06:05:11;;;;;;;8.73;7.13;;;;;;;9.75;97.66;99214.72;4901129;28;106000;-66
2021/09/23 06:07:40;;;;;;;8.53;6.57;;;;;;;9.89;96.25;99209.44;4916141;28;102683;-71
2021/09/23 06:10:10;;;;;;;7.67;6.63;;;;;;;10.01;95.46;99209.63;4908043;28;102702;-72
2021/09/23 06:12:38;;;;;;;6.13;5.53;;;;;;;10.14;95.22;99210.59;4919067;28;103249;-71
2021/09/23 06:15:08;;;;;;;8.20;6.87;;;;;;;10.27;95.24;99204.44;4917356;28;103327;-71
2021/09/23 06:22:17;;;;;;;17.00;12.10;;;;;;;9.97;99.92;99216.88;4919305;23;104259;-65
2021/09/23 06:24:59;;;;;;;14.47;12.33;;;;;;;9.98;100.00;99221.22;4905124;28;104237;-65
2021/09/23 06:27:37;;;;;;;15.53;12.43;;;;;;;9.89;100.00;99230.56;4914232;28;103241;-70
2021/09/23 06:30:07;;;;;;;19.77;12.50;;;;;;;10.03;100.00;99226.22;4916763;28;102622;-70
2021/09/23 06:32:35;;;;;;;16.67;12.70;;;;;;;10.26;100.00;99228.31;4916468;28;103200;-71
2021/09/23 06:35:04;;;;;;;16.53;13.23;;;;;;;10.02;100.00;99232.47;4892576;28;104527;-70
2021/09/23 06:37:49;;;;;;;17.03;13.40;;;;;;;9.76;100.00;99240.19;4891224;28;105131;-70
2021/09/23 06:40:18;;;;;;;18.27;14.33;;;;;;;9.73;100.00;99244.78;4913127;28;102727;-65
2021/09/23 06:42:48;;;;;;;16.30;13.47;;;;;;;9.97;100.00;99248.56;4915830;28;102775;-65
2021/09/23 06:45:17;;;;;;;16.97;13.87;;;;;;;10.10;100.00;99246.03;4894382;28;103285;-65
2021/09/23 06:47:45;;;;;;;18.77;11.77;;;;;;;10.13;100.00;99245.88;4912354;28;103246;-66
2021/09/23 06:50:14;;;;;;;11.13;8.00;;;;;;;10.59;100.00;99234.09;4891714;28;102713;-66
2021/09/23 06:52:43;;;;;;;9.30;8.00;;;;;;;10.82;99.23;99220.28;4912419;28;102760;-66
2021/09/23 06:55:13;;;;;;;11.17;8.80;;;;;;;11.16;96.39;99216.25;4914727;28;103251;-71
2021/09/23 06:57:42;;;;;;;7.83;7.13;;;;;;;11.51;94.47;99216.50;4915272;28;103762;-70
2021/09/23 07:00:29;;;;;;;10.33;8.87;;;;;;;11.67;92.67;99214.53;4912447;28;102806;-71
2021/09/23 07:03:20;;;;;;;12.27;10.60;;;;;;;11.72;91.75;99215.09;4913436;28;102660;-70
2021/09/23 07:06:04;;;;;;;11.23;8.93;;;;;;;12.01;90.37;99215.72;4891729;28;105401;-72
2021/09/23 07:08:33;;;;;;;11.03;8.80;;;;;;;12.03;90.14;99213.81;4894051;28;103213;-72
2021/09/23 07:11:04;;;;;;;13.50;9.57;;;;;;;12.38;88.92;99219.28;4892116;28;102624;-71
2021/09/23 07:13:33;;;;;;;10.53;8.30;;;;;;;12.62;88.02;99225.47;4893551;28;102848;-71
2021/09/23 07:16:02;;;;;;;9.13;7.87;;;;;;;12.78;86.77;99218.94;4897116;28;102837;-71
2021/09/23 07:18:30;;;;;;;9.27;8.30;;;;;;;12.71;88.21;99232.75;4915092;28;103218;-71
2021/09/23 07:20:59;;;;;;;12.77;10.30;;;;;;;12.90;87.23;99233.09;4916296;28;102653;-71
2021/09/23 07:23:27;;;;;;;14.47;9.17;;;;;;;12.97;86.85;99236.97;4901135;28;104102;-71
2021/09/23 07:25:55;;;;;;;11.63;9.53;;;;;;;13.59;83.52;99227.00;4934063;28;104101;-71
2021/09/23 07:28:25;;;;;;;11.60;9.77;;;;;;;13.91;81.79;99221.88;4937548;28;103128;-71
2021/09/23 07:30:54;;;;;;;9.27;8.00;;;;;;;14.15;81.68;99214.63;4936474;28;103308;-72
2021/09/23 07:33:22;;;;;;;8.77;7.87;;;;;;;14.49;80.17;99213.69;4931869;28;102733;-72
2021/09/23 07:35:51;;;;;;;11.93;10.30;;;;;;;14.49;80.21;99208.38;4936373;28;102646;-72
2021/09/23 07:38:19;;;;;;;10.03;6.90;;;;;;;15.16;77.82;99208.16;4912544;28;103301;-71
2021/09/23 07:40:49;;;;;;;12.70;10.90;;;;;;;15.03;77.71;99208.34;4934634;28;102923;-71
2021/09/23 07:43:17;;;;;;;11.23;8.17;;;;;;;15.59;76.90;99205.44;4936657;28;102721;-71
2021/09/23 07:45:47;;;;;;;13.87;11.27;;;;;;;15.13;76.34;99210.25;4912467;28;103236;-72
2021/09/23 07:48:16;;;;;;;9.00;7.90;;;;;;;16.07;75.59;99208.41;4913217;28;105475;-71
2021/09/23 07:50:44;;;;;;;11.80;8.67;;;;;;;16.72;71.88;99208.81;4911223;28;102712;-71
2021/09/23 07:53:13;;;;;;;12.67;10.20;;;;;;;16.50;73.32;99203.66;4914352;28;102778;-72
2021/09/23 07:55:56;;;;;;;10.57;8.30;;;;;;;17.20;72.55;99202.69;4935839;28;103268;-70
2021/09/23 07:59:54;;;;;;;10.27;8.73;;;;;;;17.70;67.26;99208.72;4845426;22;103763;-65
2021/09/23 08:46:48;;;;;;;11.27;7.93;;;;;;;20.57;58.36;99189.66;4918557;22;103718;-67
2021/09/23 08:49:17;;;;;;;8.75;7.68;;;;;;;20.57;56.81;99178.94;4930758;28;104542;-66
2021/09/23 08:51:49;;;;;;;8.70;7.72;;;;;;;20.80;58.87;99175.47;4934021;28;103318;-66
2021/09/23 08:54:17;;;;;;;9.48;7.30;;;;;;;21.68;56.14;99170.38;4932990;28;103054;-66
2021/09/23 08:56:47;;;;;;;17.23;8.25;;;;;;;21.34;56.42;99174.06;4935599;28;103285;-67
2021/09/23 08:59:16;;;;;;;14.23;8.82;;;;;;;21.41;57.12;99176.09;4935260;28;103340;-67
2021/09/23 09:01:50;;;;;;;9.68;8.43;;;;;;;20.78;56.08;99173.94;4927758;28;102914;-67
2021/09/23 09:04:42;;;;;;;12.27;8.55;;;;;;;21.64;55.41;99180.59;4929898;28;104326;-66
2021/09/23 09:07:31;;;;;;;9.35;7.30;;;;;;;21.91;55.90;99180.28;4933903;28;105134;-66
2021/09/23 09:10:15;;;;;;;11.05;7.43;;;;;;;21.36;57.90;99164.00;4931183;28;104985;-66
2021/09/23 09:12:46;;;;;;;9.57;7.72;;;;;;;21.72;54.58;99155.59;4934169;28;102607;-66
2021/09/23 09:15:17;;;;;;;9.10;6.82;;;;;;;21.87;55.18;99151.19;4937881;28;104410;-66
2021/09/23 09:17:48;;;;;;;8.45;6.25;;;;;;;22.00;53.80;99154.22;4936216;28;105128;-66
2021/09/23 09:20:18;;;;;;;11.57;6.78;;;;;;;21.99;54.25;99157.06;4937936;28;105671;-66
2021/09/23 09:22:46;;;;;;;9.30;6.78;;;;;;;21.69;54.55;99142.47;4937836;28;102721;-66
2021/09/23 09:25:15;;;;;;;6.78;6.07;;;;;;;22.30;54.68;99148.03;4938271;28;102799;-70
2021/09/23 09:27:48;;;;;;;10.63;6.80;;;;;;;22.85;52.14;99147.13;4936999;28;103427;-67
2021/09/23 09:30:21;;;;;;;6.65;5.10;;;;;;;22.61;52.15;99139.16;4938675;28;103043;-71
2021/09/23 09:32:57;;;;;;;9.93;5.97;;;;;;;22.63;51.95;99139.81;4937202;28;102695;-71
2021/09/23 09:35:34;;;;;;;7.10;5.38;;;;;;;21.41;54.96;99138.47;4938768;28;102829;-71
2021/09/23 09:38:08;;;;;;;8.70;6.70;;;;;;;20.77;55.17;99132.03;4937432;28;104240;-72
2021/09/23 09:40:42;;;;;;;7.60;6.18;;;;;;;21.77;53.12;99129.00;4937155;28;103233;-70
2021/09/23 09:43:14;;;;;;;7.55;5.00;;;;;;;21.74;53.69;99122.13;4935729;28;102831;-70
2021/09/23 09:45:44;;;;;;;7.07;5.35;;;;;;;22.27;52.14;99107.19;4936482;28;104103;-70
2021/09/23 09:48:16;;;;;;;6.72;4.03;;;;;;;22.79;51.97;99102.06;4936523;28;104543;-71
2021/09/23 09:50:46;;;;;;;7.85;6.70;;;;;;;22.29;52.76;99095.22;4935741;28;103334;-70
2021/09/23 09:53:14;;;;;;;6.30;5.50;;;;;;;22.41;53.21;99098.38;4937696;28;103029;-71
2021/09/23 09:55:47;;;;;;;5.38;3.95;;;;;;;23.22;50.61;99087.91;4938536;28;102808;-70
2021/09/23 09:58:23;;;;;;;6.32;4.20;;;;;;;23.48;50.88;99090.22;4936862;28;103564;-71
2021/09/23 10:00:51;;;;;;;8.05;4.72;;;;;;;22.57;51.53;99084.81;4937590;28;103060;-70
2021/09/23 10:03:22;;;;;;;7.47;4.80;;;;;;;23.26;49.38;99089.22;4936946;28;102772;-66
2021/09/23 10:05:51;;;;;;;5.00;3.72;;;;;;;23.40;48.67;99088.44;4938355;28;102844;-67
2021/09/23 10:08:24;;;;;;;6.57;3.75;;;;;;;22.66;50.02;99073.00;4936031;28;104426;-67
2021/09/23 10:10:54;;;;;;;5.47;4.57;;;;;;;22.64;51.26;99072.34;4936805;28;104922;-66
2021/09/23 10:13:25;;;;;;;5.13;4.03;;;;;;;22.65;50.24;99086.66;4938547;28;102763;-66
2021/09/23 10:15:56;;;;;;;5.32;3.88;;;;;;;22.98;50.10;99078.19;4936748;28;102692;-66
2021/09/23 10:18:28;;;;;;;3.95;3.10;;;;;;;23.57;49.01;99078.34;4936344;28;103900;-66
2021/09/23 10:20:58;;;;;;;4.28;3.17;;;;;;;23.44;48.63;99081.66;4938174;28;103280;-71
2021/09/23 10:23:31;;;;;;;5.93;3.75;;;;;;;23.41;48.36;99078.50;4937726;28;102620;-71
2021/09/23 10:26:00;;;;;;;6.78;3.35;;;;;;;23.02;48.11;99068.69;4940404;28;104547;-71
2021/09/23 10:28:29;;;;;;;6.80;3.10;;;;;;;23.30;48.84;99077.03;4937538;28;104132;-66
2021/09/23 10:30:58;;;;;;;7.35;3.83;;;;;;;23.24;48.00;99068.88;4937234;28;103449;-66
2021/09/23 10:33:29;;;;;;;3.75;3.03;;;;;;;23.46;49.28;99068.00;4931625;28;104001;-66
2021/09/23 10:35:57;;;;;;;4.82;3.17;;;;;;;24.03;48.02;99068.19;4936265;28;102915;-66
2021/09/23 10:38:30;;;;;;;4.63;2.60;;;;;;;24.25;47.84;99061.06;4926284;28;103115;-66
2021/09/23 10:41:00;;;;;;;6.72;3.13;;;;;;;23.67;46.64;99057.31;4933854;28;103228;-66
2021/09/23 10:43:32;;;;;;;7.60;3.88;;;;;;;22.48;50.44;99065.16;4935787;28;102947;-66
2021/09/23 10:46:02;;;;;;;7.57;2.72;;;;;;;23.07;49.03;99060.91;4935020;28;102827;-66
2021/09/23 10:48:49;;;;;;;5.60;3.13;;;;;;;23.89;48.06;99058.28;4899847;28;103292;-65
2021/09/23 10:51:19;;;;;;;2.47;2.22;;;;;;;23.79;48.20;99049.59;4896806;28;103295;-66
2021/09/23 10:53:58;;;;;;;4.05;2.97;;;;;;;23.41;48.59;99057.75;4900108;28;102873;-69
2021/09/23 10:56:30;;;;;;;4.97;2.70;;;;;;;24.01;47.52;99056.75;4895395;28;103954;-70
2021/09/23 10:59:02;;;;;;;3.28;2.63;;;;;;;23.91;46.58;99058.91;4893871;28;103746;-69
2021/09/23 11:01:36;;;;;;;6.80;3.03;;;;;;;23.93;46.53;99057.72;4899465;28;103496;-70
2021/09/23 11:04:27;;;;;;;3.50;2.13;;;;;;;24.54;45.88;99050.16;4900238;28;102720;-66
2021/09/23 11:06:58;;;;;;;3.40;2.13;;;;;;;24.31;46.34;99057.59;4900236;28;102681;-66
2021/09/23 11:09:28;;;;;;;3.97;2.50;;;;;;;24.52;46.20;99053.06;4910006;28;105066;-65
2021/09/23 11:12:05;;;;;;;4.55;2.58;;;;;;;25.13;44.77;99050.78;4899463;28;103288;-66
2021/09/23 11:14:40;;;;;;;4.10;2.30;;;;;;;24.59;45.50;99043.16;4899080;28;103944;-66
2021/09/23 11:17:11;;;;;;;2.95;2.13;;;;;;;23.93;46.28;99040.69;4901042;28;103139;-66
2021/09/23 11:19:41;;;;;;;4.72;3.13;;;;;;;25.22;45.11;99038.81;4898325;28;104461;-67
2021/09/23 11:22:10;;;;;;;6.55;2.58;;;;;;;25.63;44.91;99028.13;4900029;28;105771;-66
2021/09/23 11:24:39;;;;;;;5.10;2.58;;;;;;;24.21;45.31;99022.78;4898989;28;102671;-66
2021/09/23 11:27:08;;;;;;;4.20;2.63;;;;;;;24.73;45.54;99017.97;4900834;28;102764;-67
2021/09/23 11:29:53;;;;;;;3.42;2.30;;;;;;;24.97;44.94;99008.66;4899462;28;103358;-66
2021/09/23 11:32:22;;;;;;;2.20;2.00;;;;;;;25.79;43.15;99001.56;4900241;28;103276;-66
2021/09/23 11:35:03;;;;;;;4.10;2.60;;;;;;;25.51;41.76;98989.97;4914797;28;103112;-66
2021/09/23 11:37:32;;;;;;;3.55;2.55;;;;;;;25.45;42.25;98988.00;4899444;28;102792;-66
2021/09/23 11:40:03;;;;;;;2.40;2.13;;;;;;;25.87;41.78;98985.16;4896824;28;106015;-66
2021/09/23 11:42:33;;;;;;;2.70;2.50;;;;;;;25.79;42.17;98981.78;4901056;28;105151;-67
2021/09/23 11:45:12;;;;;;;2.50;2.30;;;;;;;25.11;42.46;98985.28;4899349;28;102921;-66
2021/09/23 11:47:46;;;;;;;3.67;2.40;;;;;;;25.43;41.85;98975.72;4920250;28;102707;-66
2021/09/23 11:50:32;;;;;;;2.40;1.98;;;;;;;25.71;43.24;98969.25;4930190;28;104296;-66
2021/09/23 11:53:07;;;;;;;2.25;2.05;;;;;;;25.80;42.50;98967.19;4934546;28;103255;-66
2021/09/23 11:55:41;;;;;;;2.42;2.22;;;;;;;26.28;41.12;98968.88;4914734;28;103403;-66
2021/09/23 11:58:12;;;;;;;3.00;2.30;;;;;;;26.21;40.70;98956.38;4921106;28;103217;-66
2021/09/23 12:00:45;;;;;;;2.42;2.22;;;;;;;26.59;41.04;98952.06;4928223;28;104143;-67
2021/09/23 12:03:15;;;;;;;3.10;2.15;;;;;;;25.93;39.94;98943.75;4927467;28;103493;-66
2021/09/23 12:05:48;;;;;;;2.13;1.92;;;;;;;25.44;41.75;98942.22;4929393;28;103161;-67
2021/09/23 12:08:19;;;;;;;2.15;1.80;;;;;;;26.81;38.99;98940.00;4932287;28;103106;-66
2021/09/23 12:10:52;;;;;;;2.08;1.90;;;;;;;27.28;37.55;98929.97;4929298;28;103450;-66
2021/09/23 12:13:34;;;;;;;2.28;2.08;;;;;;;26.66;39.19;98923.09;4931349;28;103230;-67
2021/09/23 12:16:06;;;;;;;3.22;2.92;;;;;;;26.83;40.60;98918.97;4919412;28;102732;-68
2021/09/23 12:18:36;;;;;;;3.92;3.05;;;;;;;26.88;41.37;98919.16;4930535;28;103215;-67
2021/09/23 12:21:09;;;;;;;3.65;2.50;;;;;;;27.22;37.58;98909.09;4927779;28;103515;-67
2021/09/23 12:23:40;;;;;;;3.35;2.67;;;;;;;26.61;39.43;98912.03;4927846;28;103380;-68
2021/09/23 12:26:20;;;;;;;2.25;2.08;;;;;;;26.77;36.90;98902.66;4929980;28;103057;-68
2021/09/23 12:28:53;;;;;;;3.83;2.70;;;;;;;26.64;36.32;98898.06;4930552;28;102829;-69
2021/09/23 12:31:35;;;;;;;3.05;2.47;;;;;;;26.61;35.09;98894.97;4930420;28;103685;-67
2021/09/23 12:34:11;;;;;;;2.53;2.10;;;;;;;26.04;37.43;98900.88;4931613;28;103294;-67